Latest Weather Observations for Weipa

IDQ60801

Issued at 3:02 pm EST Saturday 18 April 2015 (issued every 30 minutes, with the page automatically refreshed every 10 minutes)

About weather observations | Map of weather stations | Latest weather observations for QLD | Other Formats
Station Details ID: 027045 Name: WEIPA AERO Lat: -12.68 Lon: 141.92 Height: 17.96 m
Data from the previous 72 hours. | See also: Recent months at Weipa
Date/Time
EST
Temp
°C
App
Temp
°C
Dew
Point
Rel
Hum
%
Delta-T
°C
Wind Press
QNH
hPa
Press
MSL
hPa
Rain
since 9 am
mm
Dir
 
Spd
km/h
Gust
km/h
Spd
kts
Gust
kts
18/02:30pm 31.7 34.2 23.1 60 5.9 SE 15 22 8 12 1008.4 - 0.0
18/02:00pm 31.3 33.4 22.4 59 6.1 SE 15 28 8 15 1008.9 - 0.0
18/01:30pm 31.1 33.7 22.6 60 5.8 SE 13 22 7 12 1009.6 - 0.0
18/01:00pm 30.9 33.0 22.5 61 5.7 ESE 15 24 8 13 1010.0 - 0.0
18/12:30pm 31.3 32.4 22.3 58 6.1 ESE 20 33 11 18 1010.5 - 0.0
18/12:00pm 30.8 32.0 22.5 61 5.7 ESE 20 28 11 15 1011.3 1011.1 0.0
18/11:30am 30.1 32.0 22.7 64 5.1 SE 17 24 9 13 1012.0 - 0.0
18/11:00am 29.3 29.7 22.4 66 4.7 ESE 24 37 13 20 1012.4 - 0.0
18/10:30am 28.9 31.0 23.1 71 4.0 ESE 17 26 9 14 1012.8 - 0.0
18/10:00am 28.1 29.8 22.4 71 3.9 SE 17 22 9 12 1013.0 - 0.0
18/09:30am 27.3 30.0 22.8 76 3.1 SE 13 26 7 14 1013.0 - 0.0
18/09:00am 26.7 30.4 23.2 81 2.4 SSE 9 17 5 9 1012.9 1012.7 1.0
18/08:30am 25.6 29.8 23.4 88 1.5 S 7 11 4 6 1012.8 - 1.0
18/08:00am 24.8 29.0 23.1 90 1.2 SSE 6 11 3 6 1012.6 - 1.0
18/07:30am 24.0 28.2 23.1 95 0.6 SSE 6 7 3 4 1012.4 - 1.0
18/07:00am 23.6 27.8 23.2 98 0.3 S 6 9 3 5 1011.8 - 1.0
18/06:30am 23.6 28.9 23.0 96 0.4 CALM 0 4 0 2 1011.7 - 0.8
18/06:15am 23.5 28.0 22.9 96 0.4 SSE 4 7 2 4 1011.5 - 0.8
18/05:49am 23.5 27.7 23.1 98 0.3 SE 6 9 3 5 1011.3 - 0.8
18/05:30am 23.6 27.6 23.1 97 0.3 SE 7 11 4 6 1011.1 - 0.2
18/05:02am 24.1 26.7 22.6 91 1.0 SE 13 22 7 12 1010.9 - 0.0
18/05:00am 24.3 27.2 22.5 90 1.2 SE 11 20 6 11 1010.9 - 0.0
18/04:30am 24.5 27.7 22.3 87 1.5 SSE 9 15 5 8 1010.7 - 0.0
18/04:00am 24.6 28.1 22.2 86 1.6 SSE 7 11 4 6 1010.8 - 0.0
18/03:30am 24.5 28.0 22.2 87 1.5 SE 7 11 4 6 1010.8 - 0.0
18/03:00am 23.8 27.8 22.1 90 1.1 SE 4 6 2 3 1010.7 1010.5 0.0
18/02:30am 24.0 27.5 21.9 88 1.4 SE 6 6 3 3 1010.8 - 0.0
18/02:00am 24.0 27.5 21.8 87 1.5 ESE 6 7 3 4 1011.1 - 0.0
18/01:30am 23.8 27.2 21.7 88 1.4 ESE 6 6 3 3 1011.5 - 0.0
18/01:00am 23.5 26.9 21.6 89 1.3 ESE 6 7 3 4 1011.9 - 0.0
18/12:30am 23.4 26.7 21.4 88 1.3 ESE 6 9 3 5 1012.2 - 0.0
18/12:00am 23.5 26.7 21.3 87 1.4 ESE 6 7 3 4 1012.4 1012.2 0.0
 
Date/Time
EST
Temp
°C
App
Temp
°C
Dew
Point
Rel
Hum
%
Delta-T
°C
Wind Press
QNH
hPa
Press
MSL
hPa
Rain
since 9 am
mm
Dir
 
Spd
km/h
Gust
km/h
Spd
kts
Gust
kts
17/11:30pm 23.6 26.8 21.2 86 1.6 ESE 6 7 3 4 1012.5 - 0.0
17/11:00pm 23.7 26.7 20.9 84 1.8 SE 6 7 3 4 1012.6 - 0.0
17/10:30pm 24.2 27.0 20.8 81 2.2 ESE 7 9 4 5 1012.5 - 0.0
17/10:00pm 25.0 27.3 20.7 77 2.8 ESE 9 13 5 7 1012.4 - 0.0
17/09:30pm 25.4 27.4 20.7 75 3.1 ESE 11 17 6 9 1012.1 - 0.0
17/09:00pm 25.2 28.2 21.2 78 2.6 SE 7 9 4 5 1011.7 1011.5 0.0
17/08:30pm 25.8 28.7 21.0 75 3.2 ESE 7 9 4 5 1011.3 - 0.0
17/08:00pm 26.6 28.6 20.7 70 3.9 E 11 15 6 8 1010.9 - 0.0
17/07:30pm 27.1 29.5 20.8 68 4.2 E 9 11 5 6 1010.5 - 0.0
17/07:00pm 27.7 29.3 20.7 65 4.6 E 13 19 7 10 1010.1 - 0.0
17/06:30pm 28.1 30.2 21.7 68 4.3 E 13 17 7 9 1009.8 - 0.0
17/06:00pm 28.5 31.4 22.4 69 4.1 E 11 17 6 9 1009.6 1009.4 0.0
17/05:30pm 28.8 31.2 22.3 68 4.4 ESE 13 19 7 10 1009.5 - 0.0
17/05:00pm 29.1 30.1 22.2 66 4.7 ESE 20 28 11 15 1009.3 - 0.0
17/04:30pm 30.7 31.7 21.7 58 6.1 ESE 19 30 10 16 1009.1 - 0.0
17/04:00pm 30.4 32.7 23.4 66 4.8 ESE 17 28 9 15 1009.0 - 0.0
17/03:30pm 30.6 31.4 21.7 59 6.0 E 20 35 11 19 1009.1 - 0.0
17/03:00pm 31.3 32.4 21.9 57 6.4 E 19 24 10 13 1009.0 1008.8 0.0
17/02:30pm 30.0 31.4 22.8 65 4.9 SE 20 30 11 16 1009.3 - 0.0
17/02:00pm 30.1 30.4 22.9 65 4.9 SE 26 37 14 20 1009.9 - 0.0
17/01:30pm 31.8 32.7 21.9 55 6.7 E 20 33 11 18 1010.3 - 0.0
17/01:00pm 30.2 31.6 21.9 61 5.6 ESE 17 22 9 12 1010.8 - 0.0
17/12:30pm 30.3 30.2 20.7 56 6.4 ESE 22 30 12 16 1011.1 - 0.0
17/12:00pm 30.5 30.0 20.8 56 6.5 ESE 24 37 13 20 1011.6 1011.4 0.0
17/11:30am 29.6 29.5 21.4 61 5.5 ESE 24 30 13 16 1012.3 - 0.0
17/11:00am 29.3 28.1 20.8 60 5.6 ESE 28 39 15 21 1012.8 - 0.0
17/10:30am 29.3 28.1 20.8 60 5.6 ESE 28 41 15 22 1012.9 - 0.0
17/10:00am 29.1 28.1 21.2 62 5.3 SE 28 37 15 20 1013.1 - 0.0
17/09:30am 28.4 28.2 21.2 65 4.8 ESE 24 32 13 17 1013.2 - 0.0
17/09:00am 27.5 27.7 21.4 69 4.1 ESE 22 33 12 18 1013.3 1013.1 0.0
17/08:30am 26.5 27.2 21.6 74 3.3 ESE 20 30 11 16 1013.3 - 0.0
17/08:00am 25.6 27.3 21.7 79 2.6 ESE 15 24 8 13 1013.4 - 0.0
17/07:30am 24.5 26.5 21.6 84 1.9 ESE 13 19 7 10 1013.1 - 0.0
17/07:00am 23.7 26.5 21.5 87 1.5 ESE 9 13 5 7 1012.8 - 0.0
17/06:30am 23.7 25.2 21.2 86 1.6 SE 15 22 8 12 1012.3 - 0.0
17/06:00am 23.7 25.5 21.1 85 1.7 ESE 13 19 7 10 1011.9 1011.7 0.0
17/05:30am 23.9 24.9 21.0 84 1.9 SE 17 22 9 12 1011.7 - 0.0
17/05:00am 24.1 25.4 20.8 82 2.2 ESE 15 19 8 10 1011.6 - 0.0
17/04:30am 24.5 23.6 20.6 79 2.5 SE 26 37 14 20 1011.6 - 0.0
17/04:00am 24.5 24.5 20.9 80 2.4 ESE 22 32 12 17 1012.0 - 0.0
17/03:30am 24.2 25.3 21.3 84 1.9 E 17 28 9 15 1012.3 - 0.0
17/03:00am 23.9 26.8 21.7 87 1.5 ESE 9 13 5 7 1012.4 1012.2 0.0
17/02:30am 24.1 26.6 21.7 86 1.6 ESE 11 19 6 10 1012.5 - 0.0
17/02:00am 24.4 25.3 21.6 84 1.9 ESE 19 28 10 15 1012.8 - 0.0
17/01:30am 24.9 25.9 21.7 82 2.1 ESE 19 30 10 16 1013.2 - 0.0
17/01:00am 24.9 26.0 21.9 83 2.0 ESE 19 32 10 17 1013.7 - 0.0
17/12:30am 25.1 27.1 22.3 84 1.9 ESE 15 22 8 12 1014.2 - 0.0
17/12:00am 25.1 28.0 22.4 85 1.8 E 11 19 6 10 1014.5 1014.3 0.0
 
Date/Time
EST
Temp
°C
App
Temp
°C
Dew
Point
Rel
Hum
%
Delta-T
°C
Wind Press
QNH
hPa
Press
MSL
hPa
Rain
since 9 am
mm
Dir
 
Spd
km/h
Gust
km/h
Spd
kts
Gust
kts
16/11:30pm 25.2 27.7 22.5 85 1.8 ESE 13 17 7 9 1014.9 - 0.0
16/11:00pm 25.3 27.8 22.4 84 1.9 ESE 13 20 7 11 1014.9 - 0.0
16/10:30pm 25.2 28.1 22.5 85 1.8 ESE 11 17 6 9 1015.2 - 0.0
16/10:00pm 25.5 28.3 22.3 82 2.1 SE 11 15 6 8 1015.1 - 0.0
16/09:30pm 25.9 29.1 22.4 81 2.4 SE 9 15 5 8 1015.0 - 0.0
16/09:00pm 26.4 29.7 22.5 79 2.6 SSE 9 19 5 10 1014.8 1014.6 0.0
16/08:30pm 27.1 28.8 21.7 72 3.6 ESE 15 20 8 11 1014.4 - 0.0
16/08:00pm 27.2 27.9 21.5 71 3.8 ESE 20 32 11 17 1013.7 - 0.0
16/07:30pm 27.5 29.0 21.3 69 4.1 SE 15 20 8 11 1013.1 - 0.0
16/07:00pm 28.2 29.5 20.9 64 4.8 SE 15 19 8 10 1012.4 - 0.0
16/06:30pm 29.2 30.4 20.7 60 5.6 E 15 22 8 12 1011.8 - 0.0
16/06:00pm 29.8 30.3 20.8 58 6.0 ESE 19 32 10 17 1011.5 1011.3 0.0
16/05:30pm 31.1 32.1 20.3 52 7.2 ESE 15 20 8 11 1011.3 - 0.0
16/05:00pm 31.4 30.7 19.5 49 7.8 ESE 22 30 12 16 1011.1 - 0.0
16/04:30pm 31.9 31.9 19.7 48 8.0 E 19 28 10 15 1010.9 - 0.0
16/04:00pm 32.3 32.4 20.3 49 8.0 E 20 30 11 16 1010.8 - 0.0
16/03:30pm 31.1 30.4 19.6 50 7.5 ESE 22 32 12 17 1010.8 - 0.0
16/03:00pm 32.2 31.7 20.0 48 8.1 ESE 22 32 12 17 1010.9 1010.7 0.0
16/02:30pm 32.4 31.7 19.6 46 8.4 E 22 30 12 16 1011.2 - 0.0
16/02:00pm 31.6 29.7 19.3 48 8.1 SE 28 35 15 19 1011.1 - 0.0
16/01:30pm 31.4 30.8 20.5 52 7.3 ESE 24 32 13 17 1011.5 - 0.0
16/01:00pm 31.8 32.2 21.0 52 7.2 ESE 20 28 11 15 1011.9 - 0.0
16/12:30pm 31.4 31.7 21.5 55 6.7 ESE 22 32 12 17 1012.5 - 0.0
16/12:00pm 31.0 29.6 20.4 53 7.0 ESE 28 39 15 21 1012.9 1012.7 0.0
16/11:30am 30.4 30.5 21.8 60 5.8 ESE 24 35 13 19 1013.5 - 0.0
16/11:00am 28.8 29.7 21.9 66 4.6 ESE 20 30 11 16 1014.1 - 0.0
16/10:30am 29.4 29.1 21.9 64 5.1 E 26 35 14 19 1014.4 - 0.0
16/10:00am 27.7 28.2 22.0 71 3.8 ESE 22 33 12 18 1014.8 - 0.0
16/09:30am 27.5 27.6 21.8 71 3.8 ESE 24 35 13 19 1014.8 - 0.0
16/09:00am 26.9 27.8 22.0 74 3.3 ESE 20 26 11 14 1014.7 1014.5 0.0
16/08:30am 25.8 27.6 21.8 78 2.7 SE 15 22 8 12 1014.6 - 0.0
16/08:00am 24.6 27.5 21.7 84 1.9 SE 9 15 5 8 1014.5 - 0.0
16/07:30am 23.5 26.4 21.8 90 1.1 SE 9 13 5 7 1014.2 - 0.0
16/07:00am 22.4 25.1 21.3 93 0.7 SE 9 13 5 7 1013.9 - 0.0
16/06:30am 22.4 25.0 21.2 93 0.8 ESE 9 15 5 8 1013.7 - 0.0
16/06:00am 22.5 25.1 21.2 92 0.9 SE 9 13 5 7 1013.4 1013.2 0.0
16/05:30am 22.7 24.5 21.2 91 1.0 ESE 13 19 7 10 1013.4 - 0.0
16/05:00am 22.8 25.0 21.2 91 1.0 ESE 11 17 6 9 1013.6 - 0.0
16/04:30am 22.7 25.6 21.1 91 1.0 ESE 7 11 4 6 1013.6 - 0.0
16/04:00am 22.7 25.7 21.2 91 1.0 ESE 7 9 4 5 1013.5 - 0.0
16/03:30am 22.5 25.6 21.1 92 0.9 SE 6 7 3 4 1013.5 - 0.0
16/03:00am 22.6 25.7 21.1 91 1.0 ESE 6 7 3 4 1013.7 1013.5 0.0
16/02:30am 22.7 25.8 21.0 90 1.1 ESE 6 7 3 4 1013.9 - 0.0
16/02:00am 23.2 26.3 21.1 88 1.4 ESE 6 7 3 4 1014.2 - 0.0
16/01:30am 23.4 26.6 21.2 87 1.4 ESE 6 7 3 4 1014.7 - 0.0
16/01:00am 23.3 26.5 21.2 88 1.4 ESE 6 9 3 5 1014.9 - 0.0
16/12:30am 23.6 26.1 21.1 86 1.6 SE 9 11 5 6 1015.4 - 0.0
16/12:00am 23.8 26.2 20.9 84 1.9 SE 9 11 5 6 1015.6 1015.4 0.0
 
Date/Time
EST
Temp
°C
App
Temp
°C
Dew
Point
Rel
Hum
%
Delta-T
°C
Wind Press
QNH
hPa
Press
MSL
hPa
Rain
since 9 am
mm
Dir
 
Spd
km/h
Gust
km/h
Spd
kts
Gust
kts
15/11:30pm 24.0 25.9 20.6 81 2.2 SE 11 15 6 8 1015.9 - 0.0
15/11:00pm 24.1 26.8 20.7 81 2.2 SE 7 11 4 6 1015.8 - 0.0
15/10:30pm 24.5 26.8 20.7 79 2.5 SE 9 13 5 7 1015.9 - 0.0
15/10:00pm 25.0 27.2 20.5 76 2.9 SE 9 17 5 9 1015.7 - 0.0
15/09:30pm 25.3 28.0 20.6 75 3.1 ESE 7 9 4 5 1015.4 - 0.0
15/09:00pm 25.7 28.0 20.6 73 3.3 ESE 9 17 5 9 1015.2 1015.0 0.0
15/08:30pm 26.0 28.3 20.6 72 3.5 ESE 9 15 5 8 1014.9 - 0.0
15/08:00pm 25.9 28.9 20.9 74 3.3 ESE 6 7 3 4 1014.5 - 0.0
15/07:30pm 26.5 29.5 20.9 71 3.7 ESE 6 7 3 4 1014.0 - 0.0
15/07:00pm 27.3 29.4 20.1 64 4.7 E 9 13 5 7 1013.7 - 0.0
15/06:30pm 28.0 29.8 19.5 60 5.5 E 9 17 5 9 1013.5 - 0.0
15/06:00pm 28.9 29.8 20.0 58 5.8 E 15 19 8 10 1013.3 1013.1 0.0
15/05:30pm 29.8 30.6 20.7 58 6.0 ESE 17 26 9 14 1012.9 - 0.0
15/05:00pm 30.3 30.4 20.4 55 6.6 E 20 32 11 17 1012.6 - 0.0
15/04:30pm 31.2 31.4 20.6 53 7.1 E 20 30 11 16 1012.4 - 0.0
15/04:00pm 31.7 32.6 20.1 50 7.7 E 15 26 8 14 1012.3 - 0.0
15/03:30pm 31.7 31.7 20.2 50 7.6 E 20 32 11 17 1012.2 - 0.0

Other Formats:

Comma delimited format used in spreadsheet applications
http://www.bom.gov.au/fwo/IDQ60801/IDQ60801.94170.axf

JavaScript Object Notation format (JSON) in row-major order
http://www.bom.gov.au/fwo/IDQ60801/IDQ60801.94170.json